createdAt,value
2023-01-21T00:01:44.846Z,-6.86
2023-01-21T00:04:16.192Z,-6.80
2023-01-21T00:06:44.635Z,-7.94
2023-01-21T00:09:13.079Z,-7.02
2023-01-21T00:11:41.309Z,-7.14
2023-01-21T00:14:09.516Z,-7.08
2023-01-21T00:16:37.703Z,-7.01
2023-01-21T00:19:07.252Z,-7.15
2023-01-21T00:21:35.438Z,-7.07
2023-01-21T00:24:03.628Z,-7.14
2023-01-21T00:26:31.821Z,-7.20
2023-01-21T00:29:06.002Z,-7.29
2023-01-21T00:31:34.399Z,-8.63
2023-01-21T00:34:02.856Z,-7.09
2023-01-21T00:36:32.420Z,-7.10
2023-01-21T00:39:00.986Z,-7.03
2023-01-21T00:41:29.251Z,-7.10
2023-01-21T00:44:01.656Z,-7.08
2023-01-21T00:46:29.923Z,-7.05
2023-01-21T00:48:58.112Z,-6.99
2023-01-21T00:51:26.348Z,-8.50
2023-01-21T00:53:55.903Z,-6.98
2023-01-21T00:56:24.814Z,-6.97
2023-01-21T00:58:53.114Z,-7.13
2023-01-21T01:01:23.511Z,-7.15
2023-01-21T01:03:52.003Z,-7.13
2023-01-21T01:06:30.211Z,-7.28
2023-01-21T01:09:00.201Z,-7.36
2023-01-21T01:11:29.458Z,-7.30
2023-01-21T01:13:59.508Z,-7.50
2023-01-21T01:16:27.876Z,-7.62
2023-01-21T01:18:57.542Z,-7.60
2023-01-21T01:21:25.884Z,-7.86
2023-01-21T01:23:54.774Z,-6.87
2023-01-21T01:26:24.331Z,-7.56
2023-01-21T01:28:52.981Z,-7.64
2023-01-21T01:31:22.721Z,-7.68
2023-01-21T01:33:50.983Z,-7.77
2023-01-21T01:36:23.958Z,-7.81
2023-01-21T01:38:53.020Z,-7.63
2023-01-21T01:41:27.287Z,-7.77
2023-01-21T01:43:59.623Z,-7.79
2023-01-21T01:46:30.779Z,-7.74
2023-01-21T01:49:06.521Z,-7.62
2023-01-21T01:51:44.670Z,-7.69
2023-01-21T01:54:17.481Z,-7.15
2023-01-21T01:56:51.440Z,-7.69
2023-01-21T01:59:20.559Z,-7.69
2023-01-21T02:01:48.820Z,-7.65
2023-01-21T02:04:22.496Z,-7.75
2023-01-21T02:06:53.544Z,-7.88
2023-01-21T02:09:22.076Z,-7.80
2023-01-21T02:11:51.917Z,-7.89
2023-01-21T02:14:20.121Z,-7.97
2023-01-21T02:17:13.161Z,-8.00
2023-01-21T02:20:19.101Z,-7.97
2023-01-21T02:22:53.234Z,-7.85
2023-01-21T02:25:57.757Z,-7.89
2023-01-21T02:29:08.466Z,-7.98
2023-01-21T02:32:02.010Z,-8.21
2023-01-21T02:34:37.568Z,-8.21
2023-01-21T02:37:12.350Z,-7.99
2023-01-21T02:40:00.017Z,-8.10
2023-01-21T02:42:40.030Z,-7.95
2023-01-21T02:45:19.776Z,-8.17
2023-01-21T02:47:54.937Z,-8.22
2023-01-21T02:50:28.452Z,-8.46
2023-01-21T02:52:58.561Z,-8.32
2023-01-21T02:55:31.464Z,-8.22
2023-01-21T02:58:02.941Z,-8.07
2023-01-21T03:00:48.171Z,-7.94
2023-01-21T03:04:09.223Z,-7.87
2023-01-21T03:06:52.420Z,-7.88
2023-01-21T03:09:24.828Z,-7.76
2023-01-21T03:12:08.953Z,-7.64
2023-01-21T03:14:58.829Z,-7.82
2023-01-21T03:17:37.673Z,-7.75
2023-01-21T03:20:12.417Z,-7.63
2023-01-21T03:22:42.200Z,-7.78
2023-01-21T03:25:13.112Z,-7.69
2023-01-21T03:27:44.530Z,-7.59
2023-01-21T03:30:18.039Z,-7.52
2023-01-21T03:32:52.767Z,-7.34
2023-01-21T03:35:27.192Z,-7.07
2023-01-21T03:38:04.363Z,-6.93
2023-01-21T03:40:37.302Z,-6.84
2023-01-21T03:43:05.711Z,-6.65
2023-01-21T03:45:39.411Z,-6.37
2023-01-21T03:48:17.616Z,-6.38
2023-01-21T03:50:53.250Z,-6.25
2023-01-21T03:53:23.157Z,-6.02
2023-01-21T03:55:52.481Z,-6.22
2023-01-21T03:58:20.763Z,-6.86
2023-01-21T04:00:49.547Z,-5.88
2023-01-21T04:03:17.722Z,-5.88
2023-01-21T04:05:45.915Z,-5.80
2023-01-21T04:08:14.128Z,-5.55
2023-01-21T04:10:43.755Z,-5.66
2023-01-21T04:13:12.509Z,-5.51
2023-01-21T04:15:40.705Z,-5.50
2023-01-21T04:18:08.914Z,-5.46
2023-01-21T04:20:37.113Z,-5.41
2023-01-21T04:23:05.366Z,-5.36
2023-01-21T04:25:33.585Z,-5.39
2023-01-21T04:28:03.150Z,-5.42
2023-01-21T04:30:31.445Z,-5.27
2023-01-21T04:32:59.684Z,-5.36
2023-01-21T04:35:27.914Z,-6.70
2023-01-21T04:37:56.245Z,-5.33
2023-01-21T04:40:24.507Z,-5.26
2023-01-21T04:42:52.662Z,-5.19
2023-01-21T04:45:22.313Z,-5.09
2023-01-21T04:47:50.574Z,-5.33
2023-01-21T04:50:19.640Z,-5.79
2023-01-21T04:52:47.874Z,-5.16
2023-01-21T04:55:16.262Z,-5.17
2023-01-21T04:57:44.484Z,-5.18
2023-01-21T05:00:14.078Z,-5.31
2023-01-21T05:02:43.725Z,-5.24
2023-01-21T05:05:14.592Z,-5.11
2023-01-21T05:07:43.276Z,-5.19
2023-01-21T05:10:17.001Z,-5.25
2023-01-21T05:12:45.402Z,-5.84
2023-01-21T05:15:13.702Z,-5.30
2023-01-21T05:17:43.470Z,-5.25
2023-01-21T05:20:12.972Z,-5.20
2023-01-21T05:22:41.224Z,-5.21
2023-01-21T05:25:10.065Z,-5.18
2023-01-21T05:27:38.259Z,-5.14
2023-01-21T05:30:08.335Z,-4.99
2023-01-21T05:32:36.951Z,-5.03
2023-01-21T05:35:07.312Z,-4.98
2023-01-21T05:37:35.881Z,-4.91
2023-01-21T05:40:04.401Z,-4.96
2023-01-21T05:42:32.575Z,-4.89
2023-01-21T05:45:01.471Z,-4.95
2023-01-21T05:47:29.686Z,-4.82
2023-01-21T05:49:57.883Z,-4.99
2023-01-21T05:52:27.475Z,-4.90
2023-01-21T05:55:01.950Z,-4.91
2023-01-21T05:57:31.336Z,-4.71
2023-01-21T05:59:59.995Z,-4.78
2023-01-21T06:02:28.695Z,-4.75
2023-01-21T06:04:56.935Z,-4.60
2023-01-21T06:07:25.092Z,-4.66
2023-01-21T06:09:54.698Z,-4.84
2023-01-21T06:12:24.767Z,-4.48
2023-01-21T06:14:53.111Z,-4.67
2023-01-21T06:17:21.434Z,-4.67
2023-01-21T06:19:49.637Z,-4.62
2023-01-21T06:22:18.593Z,-4.57
2023-01-21T06:24:46.934Z,-4.44
2023-01-21T06:27:16.442Z,-4.54
2023-01-21T06:29:44.925Z,-4.50
2023-01-21T06:32:13.128Z,-4.49
2023-01-21T06:34:41.307Z,-4.45
2023-01-21T06:37:09.596Z,-4.57
2023-01-21T06:39:38.782Z,-4.61
2023-01-21T06:42:07.044Z,-4.48
2023-01-21T06:44:36.603Z,-4.46
2023-01-21T06:47:04.960Z,-4.61
2023-01-21T06:49:33.214Z,-4.56
2023-01-21T06:52:01.421Z,-4.62
2023-01-21T06:54:30.605Z,-4.54
2023-01-21T06:56:59.901Z,-4.57
2023-01-21T06:59:28.150Z,-4.63
2023-01-21T07:01:59.102Z,-4.65
2023-01-21T07:04:30.178Z,-4.89
2023-01-21T07:06:58.310Z,-4.56
2023-01-21T07:09:26.576Z,-4.57
2023-01-21T07:11:55.526Z,-4.49
2023-01-21T07:14:23.747Z,-4.54
2023-01-21T07:16:52.066Z,-4.54
2023-01-21T07:19:21.606Z,-4.54
2023-01-21T07:21:50.334Z,-4.42
2023-01-21T07:24:18.542Z,-4.52
2023-01-21T07:26:46.778Z,-4.38
2023-01-21T07:29:15.228Z,-30.66
2023-01-21T07:31:43.475Z,-4.50
2023-01-21T07:34:11.901Z,-4.58
2023-01-21T07:36:41.590Z,-4.48
2023-01-21T07:39:10.184Z,-4.48
2023-01-21T07:41:42.060Z,-4.57
2023-01-21T07:44:13.390Z,-4.54
2023-01-21T07:46:41.648Z,-4.46
2023-01-21T07:49:12.860Z,-4.49
2023-01-21T07:51:42.431Z,-4.53
2023-01-21T07:54:12.062Z,-4.30
2023-01-21T07:56:40.369Z,-4.28
2023-01-21T07:59:09.143Z,-4.15
2023-01-21T08:01:37.470Z,-4.12
2023-01-21T08:04:07.060Z,-4.22
2023-01-21T08:06:35.314Z,-4.15
2023-01-21T08:09:05.537Z,-4.08
2023-01-21T08:11:33.900Z,-4.16
2023-01-21T08:14:02.132Z,-4.04
2023-01-21T08:16:30.869Z,-4.15
2023-01-21T08:18:59.078Z,-3.89
2023-01-21T08:21:27.283Z,-3.76
2023-01-21T08:23:55.474Z,-3.71
2023-01-21T08:26:25.820Z,-3.71
2023-01-21T08:28:55.448Z,-3.76
2023-01-21T08:31:23.726Z,-3.80
2023-01-21T08:33:51.983Z,-4.21
2023-01-21T08:36:20.254Z,-3.70
2023-01-21T08:38:48.875Z,-3.56
2023-01-21T08:41:17.793Z,-3.77
2023-01-21T08:43:47.363Z,-3.75
2023-01-21T08:46:15.875Z,-3.64
2023-01-21T08:48:44.144Z,-3.77
2023-01-21T08:51:12.496Z,-3.69
2023-01-21T08:53:40.776Z,-3.72
2023-01-21T08:56:09.271Z,-3.65
2023-01-21T08:58:37.521Z,-3.60
2023-01-21T09:01:12.673Z,-3.62
2023-01-21T09:03:40.957Z,-3.49
2023-01-21T09:06:13.130Z,-3.49
2023-01-21T09:08:42.158Z,-3.57
2023-01-21T09:11:10.477Z,-3.46
2023-01-21T09:13:40.740Z,-3.58
2023-01-21T09:16:12.512Z,-3.39
2023-01-21T09:18:41.048Z,-3.36
2023-01-21T09:21:11.705Z,-3.28
2023-01-21T09:23:41.593Z,-3.35
2023-01-21T09:26:15.811Z,-3.34
2023-01-21T09:28:46.388Z,-3.34
2023-01-21T09:31:18.560Z,-3.34
2023-01-21T09:33:49.439Z,-3.18
2023-01-21T09:36:20.089Z,-3.08
2023-01-21T09:38:50.638Z,-3.19
2023-01-21T09:41:29.330Z,-3.05
2023-01-21T09:44:08.807Z,-3.13
2023-01-21T09:46:45.867Z,-3.10
2023-01-21T09:49:20.657Z,-3.12
2023-01-21T09:52:06.891Z,-3.07
2023-01-21T09:54:37.460Z,-3.15
2023-01-21T09:57:41.583Z,-2.95
2023-01-21T10:00:34.954Z,-3.06
2023-01-21T10:03:23.004Z,-3.02
2023-01-21T10:06:23.148Z,-2.99
2023-01-21T10:09:22.267Z,-3.04
2023-01-21T10:12:07.282Z,-2.92
2023-01-21T10:15:20.360Z,-2.83
2023-01-21T10:17:57.268Z,-2.93
2023-01-21T10:20:31.635Z,-2.28
2023-01-21T10:23:06.445Z,-2.89
2023-01-21T10:25:37.208Z,-2.84
2023-01-21T10:28:14.160Z,-2.76
2023-01-21T10:30:46.881Z,-2.75
2023-01-21T10:33:19.705Z,-2.72
2023-01-21T10:36:30.958Z,-2.78
2023-01-21T10:39:06.733Z,-2.63
2023-01-21T10:41:54.800Z,-2.73
2023-01-21T10:44:29.649Z,-2.70
2023-01-21T10:47:05.928Z,-3.46
2023-01-21T10:49:49.284Z,-2.68
2023-01-21T10:52:27.503Z,-2.60
2023-01-21T10:55:06.491Z,-2.70
2023-01-21T10:57:49.443Z,-2.69
2023-01-21T11:00:23.737Z,-2.73
2023-01-21T11:02:57.934Z,-2.63
2023-01-21T11:05:27.450Z,-2.69
2023-01-21T11:07:58.426Z,-2.56
2023-01-21T11:10:28.378Z,-2.48
2023-01-21T11:12:57.355Z,-2.71
2023-01-21T11:15:32.099Z,-2.61
2023-01-21T11:18:00.332Z,-2.55
2023-01-21T11:20:36.916Z,-2.54
2023-01-21T11:23:11.523Z,-2.52
2023-01-21T11:25:42.216Z,-2.61
2023-01-21T11:28:24.995Z,-2.44
2023-01-21T11:31:08.551Z,-2.47
2023-01-21T11:33:37.896Z,-2.44
2023-01-21T11:36:16.184Z,-2.40
2023-01-21T11:38:48.566Z,-2.43
2023-01-21T11:41:21.678Z,-2.31
2023-01-21T11:43:53.499Z,-2.34
2023-01-21T11:46:31.789Z,-2.36
2023-01-21T11:49:27.949Z,-2.24
2023-01-21T11:52:19.581Z,-2.29
2023-01-21T11:54:49.636Z,-2.28
2023-01-21T11:57:30.920Z,-2.06
2023-01-21T12:00:10.150Z,-2.26
2023-01-21T12:02:46.319Z,-2.32
2023-01-21T12:05:19.023Z,-2.29
2023-01-21T12:07:51.025Z,-2.40
2023-01-21T12:10:30.603Z,-2.30
2023-01-21T12:13:18.790Z,-2.37
2023-01-21T12:16:33.204Z,-2.22
2023-01-21T12:19:26.763Z,-2.34
2023-01-21T12:22:12.146Z,-2.40
2023-01-21T12:24:58.153Z,-2.45
2023-01-21T12:27:34.162Z,-2.30
2023-01-21T12:30:17.928Z,-2.24
2023-01-21T12:32:51.606Z,-2.26
2023-01-21T12:35:29.495Z,-2.26
2023-01-21T12:38:04.148Z,-2.28
2023-01-21T12:40:35.970Z,-2.38
2023-01-21T12:43:19.510Z,-2.37
2023-01-21T12:45:53.276Z,-2.45
2023-01-21T12:48:30.584Z,-2.36
2023-01-21T12:51:05.072Z,-2.39
2023-01-21T12:53:41.846Z,-2.42
2023-01-21T12:56:22.363Z,-2.45
2023-01-21T12:58:58.981Z,-2.38
2023-01-21T13:01:45.666Z,-2.20
2023-01-21T13:04:31.693Z,-2.18
2023-01-21T13:07:06.566Z,-2.24
2023-01-21T13:09:42.913Z,-2.28
2023-01-21T13:12:17.067Z,-2.18
2023-01-21T13:14:51.736Z,-2.12
2023-01-21T13:17:23.999Z,-2.11
2023-01-21T13:19:52.247Z,-2.06
2023-01-21T13:22:36.616Z,-2.28
2023-01-21T13:25:23.210Z,-2.21
2023-01-21T13:28:01.633Z,-2.25
2023-01-21T13:30:40.957Z,-2.31
2023-01-21T13:33:32.260Z,-2.08
2023-01-21T13:36:15.542Z,-2.23
2023-01-21T13:38:51.106Z,-2.17
2023-01-21T13:41:34.811Z,-2.28
2023-01-21T13:44:46.686Z,-2.28
2023-01-21T13:47:29.828Z,-2.21
2023-01-21T13:50:17.447Z,-2.31
2023-01-21T13:53:09.729Z,-2.27
2023-01-21T13:55:54.571Z,-2.31
2023-01-21T13:58:34.578Z,-2.31
2023-01-21T14:01:07.966Z,-2.28
2023-01-21T14:03:44.645Z,-2.19
2023-01-21T14:06:22.090Z,-2.44
2023-01-21T14:08:55.831Z,-2.44
2023-01-21T14:11:30.966Z,-2.54
2023-01-21T14:14:25.054Z,-2.58
2023-01-21T14:17:43.297Z,-2.68
2023-01-21T14:20:54.743Z,-2.63
2023-01-21T14:23:50.298Z,-2.62
2023-01-21T14:26:39.948Z,-2.56
2023-01-21T14:29:18.651Z,-2.54
2023-01-21T14:31:51.897Z,-2.60
2023-01-21T14:34:24.874Z,-2.54
2023-01-21T14:37:05.070Z,-2.62
2023-01-21T14:39:52.661Z,-2.75
2023-01-21T14:42:26.372Z,-2.66
2023-01-21T14:45:06.327Z,-2.71
2023-01-21T14:47:50.247Z,-2.87
2023-01-21T14:50:53.503Z,-2.83
2023-01-21T14:53:26.164Z,-2.88
2023-01-21T14:56:20.232Z,-2.70
2023-01-21T14:58:51.170Z,-2.70
2023-01-21T15:01:41.341Z,-2.62
2023-01-21T15:04:25.269Z,-2.67
2023-01-21T15:06:58.148Z,-2.83
2023-01-21T15:09:31.813Z,-2.85
2023-01-21T15:12:02.707Z,-2.73
2023-01-21T15:14:34.787Z,-2.74
2023-01-21T15:17:03.108Z,-2.63
2023-01-21T15:19:34.518Z,-2.78
2023-01-21T15:22:40.782Z,-2.66
2023-01-21T15:25:34.230Z,-3.17
2023-01-21T15:28:43.834Z,-2.66
2023-01-21T15:31:16.407Z,-2.68
2023-01-21T15:33:50.453Z,-2.79
2023-01-21T15:36:25.889Z,-2.67
2023-01-21T15:39:00.747Z,-2.89
2023-01-21T15:41:53.885Z,-2.76
2023-01-21T15:44:37.556Z,-2.76
2023-01-21T15:47:29.415Z,-2.97
2023-01-21T15:50:06.680Z,-3.78
2023-01-21T15:52:50.744Z,-2.91
2023-01-21T15:55:37.390Z,-3.00
2023-01-21T15:58:21.675Z,-2.76
2023-01-21T16:01:00.776Z,-2.85
2023-01-21T16:03:34.163Z,-2.88
2023-01-21T16:06:09.090Z,-2.82
2023-01-21T16:08:58.448Z,-2.81
2023-01-21T16:11:56.761Z,-2.84
2023-01-21T16:14:52.440Z,-2.85
2023-01-21T16:17:31.316Z,-2.80
2023-01-21T16:20:01.421Z,-2.78
2023-01-21T16:22:35.026Z,-2.92
2023-01-21T16:25:07.931Z,-2.81
2023-01-21T16:27:36.294Z,-2.84
2023-01-21T16:30:09.477Z,-2.80
2023-01-21T16:32:38.034Z,-2.74
2023-01-21T16:35:07.224Z,-2.72
2023-01-21T16:37:35.785Z,-2.71
2023-01-21T16:40:27.616Z,-2.78
2023-01-21T16:43:12.954Z,-2.63
2023-01-21T16:45:51.156Z,-2.58
2023-01-21T16:48:24.720Z,-2.65
2023-01-21T16:50:54.404Z,-2.56
2023-01-21T16:53:25.225Z,-2.58
2023-01-21T16:55:56.247Z,-2.55
2023-01-21T16:58:29.560Z,-2.60
2023-01-21T17:01:06.808Z,-2.73
2023-01-21T17:03:35.215Z,-2.59
2023-01-21T17:06:19.587Z,-2.50
2023-01-21T17:08:51.842Z,-2.66
2023-01-21T17:11:20.369Z,-2.69
2023-01-21T17:13:50.055Z,-2.59
2023-01-21T17:16:27.222Z,-2.61
2023-01-21T17:18:59.375Z,-2.61
2023-01-21T17:21:37.671Z,-2.60
2023-01-21T17:24:16.327Z,-2.65
2023-01-21T17:26:48.523Z,-2.69
2023-01-21T17:29:21.913Z,-2.61
2023-01-21T17:31:59.623Z,-2.58
2023-01-21T17:34:30.180Z,-2.58
2023-01-21T17:36:59.125Z,-2.62
2023-01-21T17:40:00.959Z,-2.71
2023-01-21T17:42:41.524Z,-2.82
2023-01-21T17:45:20.729Z,-2.74
2023-01-21T17:48:08.255Z,-2.69
2023-01-21T17:50:38.319Z,-2.71
2023-01-21T17:53:09.991Z,-2.73
2023-01-21T17:55:40.187Z,-2.75
2023-01-21T17:58:46.663Z,-2.74
2023-01-21T18:01:16.157Z,-2.64
2023-01-21T18:03:45.800Z,-2.71
2023-01-21T18:06:21.226Z,-2.65
2023-01-21T18:08:50.877Z,-2.70
2023-01-21T18:11:19.712Z,-2.70
2023-01-21T18:13:48.534Z,-2.59
2023-01-21T18:16:17.032Z,-4.06
2023-01-21T18:18:46.727Z,-2.55
2023-01-21T18:21:20.519Z,-2.55
2023-01-21T18:23:49.671Z,-2.69
2023-01-21T18:26:30.314Z,-2.64
2023-01-21T18:28:58.641Z,-2.69
2023-01-21T18:31:27.146Z,-2.53
2023-01-21T18:33:56.840Z,-2.61
2023-01-21T18:36:25.027Z,-2.61
2023-01-21T18:38:53.157Z,-2.70
2023-01-21T18:41:21.432Z,-2.59
2023-01-21T18:43:49.644Z,-2.59
2023-01-21T18:46:19.812Z,-2.75
2023-01-21T18:48:48.292Z,-2.73
2023-01-21T18:51:18.109Z,-2.72
2023-01-21T18:53:46.478Z,-2.62
2023-01-21T18:56:15.773Z,-2.68
2023-01-21T18:58:44.169Z,-2.62
2023-01-21T19:01:22.981Z,-2.54
2023-01-21T19:04:04.151Z,-2.63
2023-01-21T19:06:33.831Z,-2.55
2023-01-21T19:09:02.108Z,-2.69
2023-01-21T19:11:30.358Z,-2.57
2023-01-21T19:13:58.562Z,-2.57
2023-01-21T19:16:26.916Z,-2.51
2023-01-21T19:18:55.117Z,-2.61
2023-01-21T19:21:23.299Z,-2.60
2023-01-21T19:23:53.795Z,-2.50
2023-01-21T19:26:22.749Z,-2.51
2023-01-21T19:28:51.466Z,-2.55
2023-01-21T19:31:19.787Z,-2.39
2023-01-21T19:33:48.028Z,-2.45
2023-01-21T19:36:20.468Z,-2.54
2023-01-21T19:38:56.561Z,-2.61
2023-01-21T19:41:25.577Z,-2.58
2023-01-21T19:43:53.758Z,-2.55
2023-01-21T19:46:23.856Z,-2.58
2023-01-21T19:48:53.665Z,-2.71
2023-01-21T19:51:22.003Z,-2.58
2023-01-21T19:53:50.287Z,-2.44
2023-01-21T19:56:24.815Z,-2.59
2023-01-21T19:58:53.309Z,-2.51
2023-01-21T20:01:21.515Z,-2.43
2023-01-21T20:03:59.610Z,-2.60
2023-01-21T20:06:31.892Z,-2.49
2023-01-21T20:09:01.177Z,-2.50
2023-01-21T20:11:31.001Z,-2.49
2023-01-21T20:13:59.186Z,-2.70
2023-01-21T20:16:27.601Z,-2.64
2023-01-21T20:18:56.246Z,-2.62
2023-01-21T20:21:24.591Z,-2.59
2023-01-21T20:23:52.836Z,-2.62
2023-01-21T20:26:27.130Z,-2.58
2023-01-21T20:28:57.765Z,-2.67
2023-01-21T20:31:26.015Z,-2.70
2023-01-21T20:33:54.251Z,-2.64
2023-01-21T20:36:25.249Z,-2.64
2023-01-21T20:38:55.005Z,-2.59
2023-01-21T20:41:23.669Z,-3.46
2023-01-21T20:43:51.897Z,-2.45
2023-01-21T20:46:23.766Z,-3.30
2023-01-21T20:49:17.119Z,-2.63
2023-01-21T20:51:45.652Z,-2.64
2023-01-21T20:54:13.830Z,-2.65
2023-01-21T20:56:42.097Z,-2.63
2023-01-21T20:59:10.751Z,-2.70
2023-01-21T21:02:04.358Z,-2.68
2023-01-21T21:04:42.657Z,-2.69
2023-01-21T21:07:16.682Z,-2.56
2023-01-21T21:09:44.837Z,-2.68
2023-01-21T21:12:13.028Z,-2.78
2023-01-21T21:14:41.209Z,-2.70
2023-01-21T21:17:13.179Z,-2.70
2023-01-21T21:19:41.382Z,-2.73
2023-01-21T21:22:09.594Z,-2.61
2023-01-21T21:24:39.031Z,-2.67
2023-01-21T21:27:07.280Z,-2.63
2023-01-21T21:29:35.476Z,-2.51
2023-01-21T21:32:04.616Z,-2.65
2023-01-21T21:34:34.450Z,-2.70
2023-01-21T21:37:02.674Z,-2.62
2023-01-21T21:39:30.951Z,-2.66
2023-01-21T21:42:16.711Z,-2.85
2023-01-21T21:44:45.399Z,-2.71
2023-01-21T21:47:30.859Z,-2.69
2023-01-21T21:50:00.419Z,-2.65
2023-01-21T21:52:31.491Z,-2.60
2023-01-21T21:54:59.659Z,-2.69
2023-01-21T21:57:27.855Z,-2.84
2023-01-21T21:59:56.050Z,-2.79
2023-01-21T22:02:24.202Z,-2.72
2023-01-21T22:04:54.919Z,-2.69
2023-01-21T22:07:24.683Z,-2.61
2023-01-21T22:09:52.907Z,-2.56
2023-01-21T22:12:21.083Z,-2.51
2023-01-21T22:14:49.262Z,-2.56
2023-01-21T22:17:17.491Z,-2.57
2023-01-21T22:19:45.712Z,-2.54
2023-01-21T22:22:13.890Z,-2.56
2023-01-21T22:24:44.094Z,-2.66
2023-01-21T22:27:13.152Z,-2.47
2023-01-21T22:29:41.436Z,-2.60
2023-01-21T22:32:10.051Z,-2.64
2023-01-21T22:34:38.181Z,-2.58
2023-01-21T22:37:06.572Z,-2.57
2023-01-21T22:39:34.761Z,-2.56
2023-01-21T22:42:05.082Z,-2.57
2023-01-21T22:44:33.293Z,-2.56
2023-01-21T22:47:04.055Z,-2.66
2023-01-21T22:49:32.227Z,-2.59
2023-01-21T22:52:00.438Z,-2.57
2023-01-21T22:54:28.603Z,-2.55
2023-01-21T22:56:56.852Z,-2.65
2023-01-21T22:59:26.469Z,-2.62
2023-01-21T23:01:54.591Z,-2.53
2023-01-21T23:04:27.743Z,-2.51
2023-01-21T23:06:55.952Z,-2.55
2023-01-21T23:09:24.419Z,-2.43
2023-01-21T23:11:53.285Z,-2.49
2023-01-21T23:14:21.759Z,-2.54
2023-01-21T23:16:53.615Z,-2.48
2023-01-21T23:19:21.849Z,-2.45
2023-01-21T23:21:50.006Z,-2.35
2023-01-21T23:24:19.148Z,-2.39
2023-01-21T23:26:47.428Z,-2.63
2023-01-21T23:29:15.611Z,-2.54
2023-01-21T23:31:43.997Z,-2.44
2023-01-21T23:34:15.342Z,-2.53
2023-01-21T23:36:43.575Z,-2.56
2023-01-21T23:39:12.018Z,-2.49
2023-01-21T23:41:40.199Z,-2.51
2023-01-21T23:44:10.643Z,-2.48
2023-01-21T23:46:39.057Z,-2.56
2023-01-21T23:49:07.455Z,-2.49
2023-01-21T23:51:37.035Z,-2.44
2023-01-21T23:54:05.446Z,-2.50
2023-01-21T23:56:33.738Z,-2.34
2023-01-21T23:59:02.305Z,-2.52
